sensor_id;sensor_type;location;lat;lon;timestamp;temperature;humidity
26063;DHT22;13837;48.562;12.108;2022-08-03T00:00:04;17.30;99.90
26063;DHT22;13837;48.562;12.108;2022-08-03T00:02:38;17.10;99.90
26063;DHT22;13837;48.562;12.108;2022-08-03T00:05:06;17.00;99.90
26063;DHT22;13837;48.562;12.108;2022-08-03T00:07:33;17.00;99.90
26063;DHT22;13837;48.562;12.108;2022-08-03T00:09:58;17.00;99.90
26063;DHT22;13837;48.562;12.108;2022-08-03T00:12:24;16.90;99.90
26063;DHT22;13837;48.562;12.108;2022-08-03T00:14:50;16.80;99.90
26063;DHT22;13837;48.562;12.108;2022-08-03T00:17:15;16.70;99.90
26063;DHT22;13837;48.562;12.108;2022-08-03T00:19:41;16.70;99.90
26063;DHT22;13837;48.562;12.108;2022-08-03T00:22:07;16.70;99.90
26063;DHT22;13837;48.562;12.108;2022-08-03T00:24:32;16.80;99.90
26063;DHT22;13837;48.562;12.108;2022-08-03T00:27:00;16.70;99.90
26063;DHT22;13837;48.562;12.108;2022-08-03T00:29:26;16.70;99.90
26063;DHT22;13837;48.562;12.108;2022-08-03T00:31:52;16.70;99.90
26063;DHT22;13837;48.562;12.108;2022-08-03T00:34:17;16.70;99.90
26063;DHT22;13837;48.562;12.108;2022-08-03T00:36:43;16.70;99.90
26063;DHT22;13837;48.562;12.108;2022-08-03T00:39:09;16.70;99.90
26063;DHT22;13837;48.562;12.108;2022-08-03T00:41:34;16.60;99.90
26063;DHT22;13837;48.562;12.108;2022-08-03T00:44:00;16.60;99.90
26063;DHT22;13837;48.562;12.108;2022-08-03T00:46:25;16.60;99.90
26063;DHT22;13837;48.562;12.108;2022-08-03T00:48:52;16.60;99.90
26063;DHT22;13837;48.562;12.108;2022-08-03T00:51:19;16.60;99.90
26063;DHT22;13837;48.562;12.108;2022-08-03T00:53:46;16.70;99.90
26063;DHT22;13837;48.562;12.108;2022-08-03T00:56:13;16.60;99.90
26063;DHT22;13837;48.562;12.108;2022-08-03T00:58:39;16.70;99.90
26063;DHT22;13837;48.562;12.108;2022-08-03T01:01:05;16.70;99.90
26063;DHT22;13837;48.562;12.108;2022-08-03T01:03:31;16.60;99.90
26063;DHT22;13837;48.562;12.108;2022-08-03T01:08:46;16.50;99.90
26063;DHT22;13837;48.562;12.108;2022-08-03T01:11:23;16.40;99.90
26063;DHT22;13837;48.562;12.108;2022-08-03T01:14:05;16.40;99.90
26063;DHT22;13837;48.562;12.108;2022-08-03T01:16:56;16.40;99.90
26063;DHT22;13837;48.562;12.108;2022-08-03T01:28:17;16.50;99.90
26063;DHT22;13837;48.562;12.108;2022-08-03T01:30:45;16.60;99.90
26063;DHT22;13837;48.562;12.108;2022-08-03T01:33:24;16.60;99.90
26063;DHT22;13837;48.562;12.108;2022-08-03T01:35:58;16.50;99.90
26063;DHT22;13837;48.562;12.108;2022-08-03T01:38:45;16.40;99.90
26063;DHT22;13837;48.562;12.108;2022-08-03T01:41:16;16.30;99.90
26063;DHT22;13837;48.562;12.108;2022-08-03T01:43:44;16.30;99.90
26063;DHT22;13837;48.562;12.108;2022-08-03T01:46:14;16.20;99.90
26063;DHT22;13837;48.562;12.108;2022-08-03T01:48:41;16.20;99.90
26063;DHT22;13837;48.562;12.108;2022-08-03T01:51:08;16.20;99.90
26063;DHT22;13837;48.562;12.108;2022-08-03T01:53:36;16.20;99.90
26063;DHT22;13837;48.562;12.108;2022-08-03T01:56:05;16.20;99.90
26063;DHT22;13837;48.562;12.108;2022-08-03T01:58:35;16.10;99.90
26063;DHT22;13837;48.562;12.108;2022-08-03T02:01:02;16.00;99.90
26063;DHT22;13837;48.562;12.108;2022-08-03T02:03:31;16.00;99.90
26063;DHT22;13837;48.562;12.108;2022-08-03T02:05:58;15.90;99.90
26063;DHT22;13837;48.562;12.108;2022-08-03T02:08:26;15.90;99.90
26063;DHT22;13837;48.562;12.108;2022-08-03T02:10:56;15.80;99.90
26063;DHT22;13837;48.562;12.108;2022-08-03T02:13:23;15.80;99.90
26063;DHT22;13837;48.562;12.108;2022-08-03T02:15:50;15.80;99.90
26063;DHT22;13837;48.562;12.108;2022-08-03T02:18:17;15.90;99.90
26063;DHT22;13837;48.562;12.108;2022-08-03T02:20:45;15.90;99.90
26063;DHT22;13837;48.562;12.108;2022-08-03T02:23:13;15.90;99.90
26063;DHT22;13837;48.562;12.108;2022-08-03T02:25:43;16.00;99.90
26063;DHT22;13837;48.562;12.108;2022-08-03T02:28:14;15.90;99.90
26063;DHT22;13837;48.562;12.108;2022-08-03T02:30:42;15.80;99.90
26063;DHT22;13837;48.562;12.108;2022-08-03T02:33:16;15.70;99.90
26063;DHT22;13837;48.562;12.108;2022-08-03T02:35:44;15.70;99.90
26063;DHT22;13837;48.562;12.108;2022-08-03T02:38:14;15.60;99.90
26063;DHT22;13837;48.562;12.108;2022-08-03T02:40:42;15.50;99.90
26063;DHT22;13837;48.562;12.108;2022-08-03T02:43:11;15.40;99.90
26063;DHT22;13837;48.562;12.108;2022-08-03T02:45:45;15.30;99.90
26063;DHT22;13837;48.562;12.108;2022-08-03T02:48:16;15.30;99.90
26063;DHT22;13837;48.562;12.108;2022-08-03T02:50:43;15.20;99.90
26063;DHT22;13837;48.562;12.108;2022-08-03T02:53:10;15.30;99.90
26063;DHT22;13837;48.562;12.108;2022-08-03T02:55:39;15.30;99.90
26063;DHT22;13837;48.562;12.108;2022-08-03T02:58:06;15.20;99.90
26063;DHT22;13837;48.562;12.108;2022-08-03T03:00:33;15.30;99.90
26063;DHT22;13837;48.562;12.108;2022-08-03T03:03:00;15.20;99.90
26063;DHT22;13837;48.562;12.108;2022-08-03T03:05:27;15.20;99.90
26063;DHT22;13837;48.562;12.108;2022-08-03T03:07:54;15.30;99.90
26063;DHT22;13837;48.562;12.108;2022-08-03T03:10:24;15.20;99.90
26063;DHT22;13837;48.562;12.108;2022-08-03T03:12:54;15.20;99.90
26063;DHT22;13837;48.562;12.108;2022-08-03T03:15:21;15.20;99.90
26063;DHT22;13837;48.562;12.108;2022-08-03T03:17:48;15.20;99.90
26063;DHT22;13837;48.562;12.108;2022-08-03T03:20:16;15.20;99.90
26063;DHT22;13837;48.562;12.108;2022-08-03T03:22:43;15.10;99.90
26063;DHT22;13837;48.562;12.108;2022-08-03T03:25:10;15.10;99.90
26063;DHT22;13837;48.562;12.108;2022-08-03T03:27:36;15.10;99.90
26063;DHT22;13837;48.562;12.108;2022-08-03T03:30:02;15.10;99.90
26063;DHT22;13837;48.562;12.108;2022-08-03T03:32:28;15.10;99.90
26063;DHT22;13837;48.562;12.108;2022-08-03T03:34:55;15.10;99.90
26063;DHT22;13837;48.562;12.108;2022-08-03T03:37:21;15.10;99.90
26063;DHT22;13837;48.562;12.108;2022-08-03T03:39:46;15.10;99.90
26063;DHT22;13837;48.562;12.108;2022-08-03T03:42:12;15.20;99.90
26063;DHT22;13837;48.562;12.108;2022-08-03T03:44:38;15.20;99.90
26063;DHT22;13837;48.562;12.108;2022-08-03T03:47:04;15.20;99.90
26063;DHT22;13837;48.562;12.108;2022-08-03T03:49:30;15.20;99.90
26063;DHT22;13837;48.562;12.108;2022-08-03T03:51:56;15.20;99.90
26063;DHT22;13837;48.562;12.108;2022-08-03T03:54:22;15.30;99.90
26063;DHT22;13837;48.562;12.108;2022-08-03T03:56:48;15.30;99.90
26063;DHT22;13837;48.562;12.108;2022-08-03T03:59:13;15.20;99.90
26063;DHT22;13837;48.562;12.108;2022-08-03T04:01:39;15.10;99.90
26063;DHT22;13837;48.562;12.108;2022-08-03T04:04:05;15.00;99.90
26063;DHT22;13837;48.562;12.108;2022-08-03T04:06:50;15.10;99.90
26063;DHT22;13837;48.562;12.108;2022-08-03T04:09:35;15.10;99.90
26063;DHT22;13837;48.562;12.108;2022-08-03T04:12:21;15.20;99.90
26063;DHT22;13837;48.562;12.108;2022-08-03T04:14:50;15.20;99.90
26063;DHT22;13837;48.562;12.108;2022-08-03T04:17:17;15.10;99.90
26063;DHT22;13837;48.562;12.108;2022-08-03T04:19:49;15.20;99.90
26063;DHT22;13837;48.562;12.108;2022-08-03T04:22:19;15.20;99.90
26063;DHT22;13837;48.562;12.108;2022-08-03T04:24:52;15.30;99.90
26063;DHT22;13837;48.562;12.108;2022-08-03T04:27:25;15.20;99.90
26063;DHT22;13837;48.562;12.108;2022-08-03T04:29:53;15.20;99.90
26063;DHT22;13837;48.562;12.108;2022-08-03T04:32:21;15.20;99.90
26063;DHT22;13837;48.562;12.108;2022-08-03T04:34:50;15.20;99.90
26063;DHT22;13837;48.562;12.108;2022-08-03T04:37:38;15.20;99.90
26063;DHT22;13837;48.562;12.108;2022-08-03T04:40:11;15.20;99.90
26063;DHT22;13837;48.562;12.108;2022-08-03T04:42:39;15.30;99.90
26063;DHT22;13837;48.562;12.108;2022-08-03T04:45:06;15.40;99.90
26063;DHT22;13837;48.562;12.108;2022-08-03T04:47:33;15.50;99.90
26063;DHT22;13837;48.562;12.108;2022-08-03T04:50:04;15.50;99.90
26063;DHT22;13837;48.562;12.108;2022-08-03T04:52:30;15.60;99.90
26063;DHT22;13837;48.562;12.108;2022-08-03T04:54:57;15.70;99.90
26063;DHT22;13837;48.562;12.108;2022-08-03T04:57:23;15.80;99.90
26063;DHT22;13837;48.562;12.108;2022-08-03T04:59:52;15.80;99.90
26063;DHT22;13837;48.562;12.108;2022-08-03T05:02:22;15.90;99.90
26063;DHT22;13837;48.562;12.108;2022-08-03T05:04:48;16.00;99.90
26063;DHT22;13837;48.562;12.108;2022-08-03T05:07:15;16.00;99.90
26063;DHT22;13837;48.562;12.108;2022-08-03T05:09:41;16.10;99.90
26063;DHT22;13837;48.562;12.108;2022-08-03T05:12:07;16.20;99.90
26063;DHT22;13837;48.562;12.108;2022-08-03T05:14:33;16.20;99.90
26063;DHT22;13837;48.562;12.108;2022-08-03T05:17:01;16.30;99.90
26063;DHT22;13837;48.562;12.108;2022-08-03T05:19:27;16.40;99.90
26063;DHT22;13837;48.562;12.108;2022-08-03T05:21:53;16.50;99.90
26063;DHT22;13837;48.562;12.108;2022-08-03T05:24:18;16.60;99.90
26063;DHT22;13837;48.562;12.108;2022-08-03T05:26:44;16.70;99.90
26063;DHT22;13837;48.562;12.108;2022-08-03T05:29:10;16.80;99.90
26063;DHT22;13837;48.562;12.108;2022-08-03T05:31:35;16.80;99.90
26063;DHT22;13837;48.562;12.108;2022-08-03T05:34:01;16.90;99.90
26063;DHT22;13837;48.562;12.108;2022-08-03T05:36:33;16.90;99.90
26063;DHT22;13837;48.562;12.108;2022-08-03T05:38:59;17.00;99.90
26063;DHT22;13837;48.562;12.108;2022-08-03T05:41:24;17.10;99.90
26063;DHT22;13837;48.562;12.108;2022-08-03T05:43:53;17.20;99.90
26063;DHT22;13837;48.562;12.108;2022-08-03T05:46:20;17.30;99.90
26063;DHT22;13837;48.562;12.108;2022-08-03T05:48:46;17.40;99.90
26063;DHT22;13837;48.562;12.108;2022-08-03T05:51:12;17.50;99.90
26063;DHT22;13837;48.562;12.108;2022-08-03T05:53:40;17.60;99.90
26063;DHT22;13837;48.562;12.108;2022-08-03T05:56:07;17.70;99.90
26063;DHT22;13837;48.562;12.108;2022-08-03T05:58:33;17.80;99.90
26063;DHT22;13837;48.562;12.108;2022-08-03T06:00:58;17.90;99.90
26063;DHT22;13837;48.562;12.108;2022-08-03T06:03:24;18.00;99.90
26063;DHT22;13837;48.562;12.108;2022-08-03T06:05:50;18.10;99.90
26063;DHT22;13837;48.562;12.108;2022-08-03T06:08:17;18.20;99.90
26063;DHT22;13837;48.562;12.108;2022-08-03T06:10:43;18.30;99.90
26063;DHT22;13837;48.562;12.108;2022-08-03T06:13:08;18.40;99.90
26063;DHT22;13837;48.562;12.108;2022-08-03T06:15:34;18.50;99.90
26063;DHT22;13837;48.562;12.108;2022-08-03T06:18:00;18.60;99.90
26063;DHT22;13837;48.562;12.108;2022-08-03T06:20:25;18.80;99.90
26063;DHT22;13837;48.562;12.108;2022-08-03T06:22:51;19.00;99.90
26063;DHT22;13837;48.562;12.108;2022-08-03T06:25:17;19.20;99.90
26063;DHT22;13837;48.562;12.108;2022-08-03T06:27:44;19.40;99.90
26063;DHT22;13837;48.562;12.108;2022-08-03T06:30:10;19.50;99.90
26063;DHT22;13837;48.562;12.108;2022-08-03T06:32:37;19.80;99.90
26063;DHT22;13837;48.562;12.108;2022-08-03T06:35:07;20.00;99.90
26063;DHT22;13837;48.562;12.108;2022-08-03T06:37:50;20.10;99.90
26063;DHT22;13837;48.562;12.108;2022-08-03T06:40:20;20.40;99.90
26063;DHT22;13837;48.562;12.108;2022-08-03T06:42:57;20.60;99.90
26063;DHT22;13837;48.562;12.108;2022-08-03T06:45:24;20.50;99.90
26063;DHT22;13837;48.562;12.108;2022-08-03T06:48:09;20.70;99.90
26063;DHT22;13837;48.562;12.108;2022-08-03T06:50:39;20.80;99.90
26063;DHT22;13837;48.562;12.108;2022-08-03T06:53:06;20.70;99.90
26063;DHT22;13837;48.562;12.108;2022-08-03T06:55:32;21.00;99.90
26063;DHT22;13837;48.562;12.108;2022-08-03T06:57:58;21.20;99.90
26063;DHT22;13837;48.562;12.108;2022-08-03T07:00:23;21.50;99.90
26063;DHT22;13837;48.562;12.108;2022-08-03T07:02:50;21.60;99.90
26063;DHT22;13837;48.562;12.108;2022-08-03T07:05:16;21.50;99.90
26063;DHT22;13837;48.562;12.108;2022-08-03T07:07:42;21.60;99.90
26063;DHT22;13837;48.562;12.108;2022-08-03T07:10:09;21.80;99.90
26063;DHT22;13837;48.562;12.108;2022-08-03T07:12:36;22.00;99.90
26063;DHT22;13837;48.562;12.108;2022-08-03T07:15:03;21.90;99.90
26063;DHT22;13837;48.562;12.108;2022-08-03T07:17:32;22.10;99.90
26063;DHT22;13837;48.562;12.108;2022-08-03T07:19:58;22.30;99.90
26063;DHT22;13837;48.562;12.108;2022-08-03T07:22:25;22.40;99.90
26063;DHT22;13837;48.562;12.108;2022-08-03T07:24:50;22.30;99.90
26063;DHT22;13837;48.562;12.108;2022-08-03T07:27:16;22.10;99.90
26063;DHT22;13837;48.562;12.108;2022-08-03T07:29:42;21.90;99.90
26063;DHT22;13837;48.562;12.108;2022-08-03T07:32:08;22.00;99.90
26063;DHT22;13837;48.562;12.108;2022-08-03T07:34:33;22.30;99.90
26063;DHT22;13837;48.562;12.108;2022-08-03T07:36:59;22.60;99.90
26063;DHT22;13837;48.562;12.108;2022-08-03T07:39:25;22.80;99.90
26063;DHT22;13837;48.562;12.108;2022-08-03T07:41:50;23.10;99.90
26063;DHT22;13837;48.562;12.108;2022-08-03T07:44:20;23.00;99.90
26063;DHT22;13837;48.562;12.108;2022-08-03T07:46:46;23.10;99.90
26063;DHT22;13837;48.562;12.108;2022-08-03T07:49:12;23.00;99.90
26063;DHT22;13837;48.562;12.108;2022-08-03T07:51:38;23.20;99.90
26063;DHT22;13837;48.562;12.108;2022-08-03T07:54:04;23.30;99.90
26063;DHT22;13837;48.562;12.108;2022-08-03T07:56:30;23.70;99.90
26063;DHT22;13837;48.562;12.108;2022-08-03T07:58:55;24.00;99.90
26063;DHT22;13837;48.562;12.108;2022-08-03T08:01:22;24.10;99.90
26063;DHT22;13837;48.562;12.108;2022-08-03T08:03:48;24.40;99.90
26063;DHT22;13837;48.562;12.108;2022-08-03T08:06:15;24.60;99.90
26063;DHT22;13837;48.562;12.108;2022-08-03T08:08:42;24.60;99.90
26063;DHT22;13837;48.562;12.108;2022-08-03T08:11:08;24.80;99.90
26063;DHT22;13837;48.562;12.108;2022-08-03T08:13:33;24.60;99.90
26063;DHT22;13837;48.562;12.108;2022-08-03T08:15:59;24.80;99.90
26063;DHT22;13837;48.562;12.108;2022-08-03T08:18:25;25.10;99.90
26063;DHT22;13837;48.562;12.108;2022-08-03T08:20:54;25.50;99.90
26063;DHT22;13837;48.562;12.108;2022-08-03T08:23:19;25.70;99.90
26063;DHT22;13837;48.562;12.108;2022-08-03T08:25:49;25.80;99.90
26063;DHT22;13837;48.562;12.108;2022-08-03T08:28:19;26.00;99.90
26063;DHT22;13837;48.562;12.108;2022-08-03T08:30:45;26.00;99.90
26063;DHT22;13837;48.562;12.108;2022-08-03T08:33:11;26.10;99.90
26063;DHT22;13837;48.562;12.108;2022-08-03T08:35:37;26.30;99.90
26063;DHT22;13837;48.562;12.108;2022-08-03T08:38:03;26.50;99.90
26063;DHT22;13837;48.562;12.108;2022-08-03T08:40:29;26.50;99.90
26063;DHT22;13837;48.562;12.108;2022-08-03T08:42:54;26.70;99.90
26063;DHT22;13837;48.562;12.108;2022-08-03T08:45:20;26.90;99.90
26063;DHT22;13837;48.562;12.108;2022-08-03T08:47:48;27.20;99.90
26063;DHT22;13837;48.562;12.108;2022-08-03T08:50:18;27.40;99.90
26063;DHT22;13837;48.562;12.108;2022-08-03T08:52:49;27.50;99.90
26063;DHT22;13837;48.562;12.108;2022-08-03T08:55:19;27.50;99.90
26063;DHT22;13837;48.562;12.108;2022-08-03T08:57:55;27.50;99.90
26063;DHT22;13837;48.562;12.108;2022-08-03T09:00:23;27.80;99.90
26063;DHT22;13837;48.562;12.108;2022-08-03T09:02:49;27.90;99.90
26063;DHT22;13837;48.562;12.108;2022-08-03T09:05:17;28.10;99.90
26063;DHT22;13837;48.562;12.108;2022-08-03T09:07:44;28.20;99.90
26063;DHT22;13837;48.562;12.108;2022-08-03T09:10:11;28.20;99.90
26063;DHT22;13837;48.562;12.108;2022-08-03T09:12:42;28.30;99.90
26063;DHT22;13837;48.562;12.108;2022-08-03T09:17:50;28.40;99.90
26063;DHT22;13837;48.562;12.108;2022-08-03T09:20:17;28.50;99.90
26063;DHT22;13837;48.562;12.108;2022-08-03T09:22:59;28.70;99.90
26063;DHT22;13837;48.562;12.108;2022-08-03T09:25:37;28.90;99.90
26063;DHT22;13837;48.562;12.108;2022-08-03T09:28:08;29.00;99.90
26063;DHT22;13837;48.562;12.108;2022-08-03T09:30:36;29.00;99.90
26063;DHT22;13837;48.562;12.108;2022-08-03T09:33:05;29.10;99.90
26063;DHT22;13837;48.562;12.108;2022-08-03T09:35:32;29.30;99.90
26063;DHT22;13837;48.562;12.108;2022-08-03T09:38:36;29.30;99.90
26063;DHT22;13837;48.562;12.108;2022-08-03T09:41:03;29.40;99.90
26063;DHT22;13837;48.562;12.108;2022-08-03T09:43:45;29.70;99.90
26063;DHT22;13837;48.562;12.108;2022-08-03T09:46:11;29.80;99.90
26063;DHT22;13837;48.562;12.108;2022-08-03T09:48:36;29.80;99.90
26063;DHT22;13837;48.562;12.108;2022-08-03T09:51:03;30.00;99.90
26063;DHT22;13837;48.562;12.108;2022-08-03T09:53:29;30.20;99.90
26063;DHT22;13837;48.562;12.108;2022-08-03T09:56:00;29.70;99.30
26063;DHT22;13837;48.562;12.108;2022-08-03T09:58:28;29.90;99.90
26063;DHT22;13837;48.562;12.108;2022-08-03T10:01:04;30.00;99.50
26063;DHT22;13837;48.562;12.108;2022-08-03T10:03:34;30.10;96.60
26063;DHT22;13837;48.562;12.108;2022-08-03T10:06:17;30.10;97.00
26063;DHT22;13837;48.562;12.108;2022-08-03T10:09:13;30.30;96.90
26063;DHT22;13837;48.562;12.108;2022-08-03T10:11:40;30.60;96.60
26063;DHT22;13837;48.562;12.108;2022-08-03T10:14:08;30.60;97.10
26063;DHT22;13837;48.562;12.108;2022-08-03T10:16:38;30.80;95.70
26063;DHT22;13837;48.562;12.108;2022-08-03T10:19:06;30.80;96.00
26063;DHT22;13837;48.562;12.108;2022-08-03T10:21:33;30.60;94.10
26063;DHT22;13837;48.562;12.108;2022-08-03T10:24:02;30.70;93.20
26063;DHT22;13837;48.562;12.108;2022-08-03T10:26:31;30.80;92.70
26063;DHT22;13837;48.562;12.108;2022-08-03T10:28:59;31.00;93.70
26063;DHT22;13837;48.562;12.108;2022-08-03T10:31:32;31.10;93.20
26063;DHT22;13837;48.562;12.108;2022-08-03T10:34:00;31.10;92.10
26063;DHT22;13837;48.562;12.108;2022-08-03T10:36:29;31.30;90.30
26063;DHT22;13837;48.562;12.108;2022-08-03T10:38:56;31.30;90.10
26063;DHT22;13837;48.562;12.108;2022-08-03T10:41:30;31.30;90.50
26063;DHT22;13837;48.562;12.108;2022-08-03T10:44:07;31.50;90.30
26063;DHT22;13837;48.562;12.108;2022-08-03T10:46:35;31.80;89.60
26063;DHT22;13837;48.562;12.108;2022-08-03T10:49:03;32.10;89.00
26063;DHT22;13837;48.562;12.108;2022-08-03T10:51:30;31.80;81.30
26063;DHT22;13837;48.562;12.108;2022-08-03T10:53:57;31.90;86.60
26063;DHT22;13837;48.562;12.108;2022-08-03T11:02:13;32.50;86.80
26063;DHT22;13837;48.562;12.108;2022-08-03T11:04:40;31.60;85.50
26063;DHT22;13837;48.562;12.108;2022-08-03T11:09:43;32.20;82.90
26063;DHT22;13837;48.562;12.108;2022-08-03T11:12:25;32.40;83.60
26063;DHT22;13837;48.562;12.108;2022-08-03T11:14:52;32.60;83.40
26063;DHT22;13837;48.562;12.108;2022-08-03T11:17:18;32.70;82.80
26063;DHT22;13837;48.562;12.108;2022-08-03T11:19:46;33.00;83.30
26063;DHT22;13837;48.562;12.108;2022-08-03T11:22:12;33.20;82.20
26063;DHT22;13837;48.562;12.108;2022-08-03T11:35:25;33.30;80.90
26063;DHT22;13837;48.562;12.108;2022-08-03T11:46:12;33.20;76.10
26063;DHT22;13837;48.562;12.108;2022-08-03T11:48:47;33.40;70.80
26063;DHT22;13837;48.562;12.108;2022-08-03T11:51:20;33.40;73.00
26063;DHT22;13837;48.562;12.108;2022-08-03T11:53:46;33.30;70.60
26063;DHT22;13837;48.562;12.108;2022-08-03T11:56:15;33.60;72.70
26063;DHT22;13837;48.562;12.108;2022-08-03T11:58:49;33.90;73.80
26063;DHT22;13837;48.562;12.108;2022-08-03T12:01:17;34.00;71.30
26063;DHT22;13837;48.562;12.108;2022-08-03T12:03:43;34.00;68.40
26063;DHT22;13837;48.562;12.108;2022-08-03T12:06:10;34.00;69.50
26063;DHT22;13837;48.562;12.108;2022-08-03T12:08:36;33.70;70.40
26063;DHT22;13837;48.562;12.108;2022-08-03T12:11:04;33.80;67.30
26063;DHT22;13837;48.562;12.108;2022-08-03T12:13:48;34.00;68.80
26063;DHT22;13837;48.562;12.108;2022-08-03T12:16:18;34.30;69.20
26063;DHT22;13837;48.562;12.108;2022-08-03T12:18:53;34.50;65.30
26063;DHT22;13837;48.562;12.108;2022-08-03T12:21:19;34.60;68.40
26063;DHT22;13837;48.562;12.108;2022-08-03T12:23:48;34.80;63.20
26063;DHT22;13837;48.562;12.108;2022-08-03T12:26:14;34.90;62.60
26063;DHT22;13837;48.562;12.108;2022-08-03T12:28:46;34.60;62.30
26063;DHT22;13837;48.562;12.108;2022-08-03T12:31:12;34.80;65.70
26063;DHT22;13837;48.562;12.108;2022-08-03T12:34:00;34.20;65.00
26063;DHT22;13837;48.562;12.108;2022-08-03T12:36:28;34.50;62.10
26063;DHT22;13837;48.562;12.108;2022-08-03T12:38:55;34.70;60.40
26063;DHT22;13837;48.562;12.108;2022-08-03T12:41:34;34.30;59.30
26063;DHT22;13837;48.562;12.108;2022-08-03T12:44:04;34.40;61.20
26063;DHT22;13837;48.562;12.108;2022-08-03T12:46:38;34.20;59.60
26063;DHT22;13837;48.562;12.108;2022-08-03T12:49:08;34.30;60.50
26063;DHT22;13837;48.562;12.108;2022-08-03T12:54:09;34.70;64.10
26063;DHT22;13837;48.562;12.108;2022-08-03T12:56:35;34.90;62.90
26063;DHT22;13837;48.562;12.108;2022-08-03T12:59:24;34.80;65.00
26063;DHT22;13837;48.562;12.108;2022-08-03T13:01:51;35.20;64.20
26063;DHT22;13837;48.562;12.108;2022-08-03T13:07:03;35.30;62.00
26063;DHT22;13837;48.562;12.108;2022-08-03T13:09:30;35.60;60.80
26063;DHT22;13837;48.562;12.108;2022-08-03T13:12:15;35.70;59.60
26063;DHT22;13837;48.562;12.108;2022-08-03T13:14:42;35.30;59.80
26063;DHT22;13837;48.562;12.108;2022-08-03T13:17:08;35.20;60.50
26063;DHT22;13837;48.562;12.108;2022-08-03T13:19:35;35.20;58.80
26063;DHT22;13837;48.562;12.108;2022-08-03T13:24:36;35.20;58.20
26063;DHT22;13837;48.562;12.108;2022-08-03T13:27:02;35.30;58.50
26063;DHT22;13837;48.562;12.108;2022-08-03T13:29:29;35.20;59.50
26063;DHT22;13837;48.562;12.108;2022-08-03T13:31:55;35.50;59.90
26063;DHT22;13837;48.562;12.108;2022-08-03T13:34:20;35.70;60.20
26063;DHT22;13837;48.562;12.108;2022-08-03T13:36:46;35.70;59.70
26063;DHT22;13837;48.562;12.108;2022-08-03T13:39:12;36.00;59.80
26063;DHT22;13837;48.562;12.108;2022-08-03T13:41:37;35.70;58.50
26063;DHT22;13837;48.562;12.108;2022-08-03T13:44:03;35.80;58.80
26063;DHT22;13837;48.562;12.108;2022-08-03T13:46:29;35.80;59.40
26063;DHT22;13837;48.562;12.108;2022-08-03T13:48:54;36.00;59.40
26063;DHT22;13837;48.562;12.108;2022-08-03T13:51:20;35.90;58.50
26063;DHT22;13837;48.562;12.108;2022-08-03T13:53:46;35.80;59.70
26063;DHT22;13837;48.562;12.108;2022-08-03T13:56:11;35.70;59.80
26063;DHT22;13837;48.562;12.108;2022-08-03T13:58:37;35.70;59.30
26063;DHT22;13837;48.562;12.108;2022-08-03T14:01:03;35.60;59.30
26063;DHT22;13837;48.562;12.108;2022-08-03T14:03:28;35.70;59.50
26063;DHT22;13837;48.562;12.108;2022-08-03T14:05:54;35.70;61.00
26063;DHT22;13837;48.562;12.108;2022-08-03T14:08:20;35.90;61.80
26063;DHT22;13837;48.562;12.108;2022-08-03T14:10:45;35.80;60.00
26063;DHT22;13837;48.562;12.108;2022-08-03T14:13:12;36.10;59.30
26063;DHT22;13837;48.562;12.108;2022-08-03T14:15:39;35.90;56.90
26063;DHT22;13837;48.562;12.108;2022-08-03T14:18:06;35.80;58.60
26063;DHT22;13837;48.562;12.108;2022-08-03T14:20:33;35.70;59.00
26063;DHT22;13837;48.562;12.108;2022-08-03T14:22:58;35.80;58.30
26063;DHT22;13837;48.562;12.108;2022-08-03T14:25:24;35.50;56.50
26063;DHT22;13837;48.562;12.108;2022-08-03T14:27:50;35.20;57.40
26063;DHT22;13837;48.562;12.108;2022-08-03T14:30:15;35.20;58.30
26063;DHT22;13837;48.562;12.108;2022-08-03T14:32:41;35.30;58.10
26063;DHT22;13837;48.562;12.108;2022-08-03T14:35:08;35.10;56.90
26063;DHT22;13837;48.562;12.108;2022-08-03T14:37:34;35.20;57.40
26063;DHT22;13837;48.562;12.108;2022-08-03T14:39:59;35.40;57.80
26063;DHT22;13837;48.562;12.108;2022-08-03T14:42:25;34.50;57.60
26063;DHT22;13837;48.562;12.108;2022-08-03T14:44:51;34.00;59.00
26063;DHT22;13837;48.562;12.108;2022-08-03T14:47:16;34.60;58.70
26063;DHT22;13837;48.562;12.108;2022-08-03T14:49:42;34.80;58.10
26063;DHT22;13837;48.562;12.108;2022-08-03T14:52:08;34.90;58.10
26063;DHT22;13837;48.562;12.108;2022-08-03T14:54:34;35.20;58.90
26063;DHT22;13837;48.562;12.108;2022-08-03T14:56:59;35.40;57.90
26063;DHT22;13837;48.562;12.108;2022-08-03T14:59:25;35.30;58.10
26063;DHT22;13837;48.562;12.108;2022-08-03T15:01:52;35.60;56.80
26063;DHT22;13837;48.562;12.108;2022-08-03T15:04:17;35.50;56.90
26063;DHT22;13837;48.562;12.108;2022-08-03T15:06:43;35.40;56.10
26063;DHT22;13837;48.562;12.108;2022-08-03T15:09:09;35.40;56.60
26063;DHT22;13837;48.562;12.108;2022-08-03T15:11:35;35.60;56.40
26063;DHT22;13837;48.562;12.108;2022-08-03T15:14:01;35.70;56.00
26063;DHT22;13837;48.562;12.108;2022-08-03T15:16:26;35.60;57.10
26063;DHT22;13837;48.562;12.108;2022-08-03T15:18:52;35.70;57.20
26063;DHT22;13837;48.562;12.108;2022-08-03T15:21:18;35.60;55.00
26063;DHT22;13837;48.562;12.108;2022-08-03T15:23:43;35.70;57.70
26063;DHT22;13837;48.562;12.108;2022-08-03T15:26:09;35.70;56.30
26063;DHT22;13837;48.562;12.108;2022-08-03T15:28:35;35.70;56.40
26063;DHT22;13837;48.562;12.108;2022-08-03T15:31:00;35.80;56.40
26063;DHT22;13837;48.562;12.108;2022-08-03T15:33:27;35.70;56.60
26063;DHT22;13837;48.562;12.108;2022-08-03T15:35:53;35.60;56.80
26063;DHT22;13837;48.562;12.108;2022-08-03T15:38:19;35.50;56.10
26063;DHT22;13837;48.562;12.108;2022-08-03T15:40:47;35.50;57.10
26063;DHT22;13837;48.562;12.108;2022-08-03T15:43:13;35.50;56.60
26063;DHT22;13837;48.562;12.108;2022-08-03T15:45:39;35.70;56.40
26063;DHT22;13837;48.562;12.108;2022-08-03T15:48:05;35.80;56.60
26063;DHT22;13837;48.562;12.108;2022-08-03T15:50:30;35.80;55.90
26063;DHT22;13837;48.562;12.108;2022-08-03T15:52:56;35.80;55.10
26063;DHT22;13837;48.562;12.108;2022-08-03T15:55:22;35.70;53.50
26063;DHT22;13837;48.562;12.108;2022-08-03T15:57:47;35.60;56.40
26063;DHT22;13837;48.562;12.108;2022-08-03T16:00:14;35.60;56.30
26063;DHT22;13837;48.562;12.108;2022-08-03T16:02:40;35.30;54.50
26063;DHT22;13837;48.562;12.108;2022-08-03T16:05:06;35.10;55.00
26063;DHT22;13837;48.562;12.108;2022-08-03T16:07:32;35.10;55.40
26063;DHT22;13837;48.562;12.108;2022-08-03T16:10:17;35.10;56.20